sensor_id;sensor_type;location;lat;lon;timestamp;pressure;altitude;pressure_sealevel;temperature;humidity
46379;BME280;32084;42.254;22.744;2023-03-14T00:01:44;95399.94;;;1.10;64.28
46379;BME280;32084;42.254;22.744;2023-03-14T00:04:10;95394.94;;;1.06;64.41
46379;BME280;32084;42.254;22.744;2023-03-14T00:06:36;95390.25;;;0.96;64.99
46379;BME280;32084;42.254;22.744;2023-03-14T00:09:02;95393.31;;;0.76;64.87
46379;BME280;32084;42.254;22.744;2023-03-14T00:11:28;95397.34;;;0.82;65.94
46379;BME280;32084;42.254;22.744;2023-03-14T00:13:55;95397.81;;;0.88;66.06
46379;BME280;32084;42.254;22.744;2023-03-14T00:16:21;95395.53;;;0.96;66.23
46379;BME280;32084;42.254;22.744;2023-03-14T00:18:47;95399.19;;;1.08;65.62
46379;BME280;32084;42.254;22.744;2023-03-14T00:21:13;95391.44;;;0.78;65.88
46379;BME280;32084;42.254;22.744;2023-03-14T00:23:40;95397.19;;;0.70;65.84
46379;BME280;32084;42.254;22.744;2023-03-14T00:26:08;95401.00;;;0.79;65.78
46379;BME280;32084;42.254;22.744;2023-03-14T00:28:35;95390.72;;;0.89;65.52
46379;BME280;32084;42.254;22.744;2023-03-14T00:31:04;95391.53;;;0.76;64.94
46379;BME280;32084;42.254;22.744;2023-03-14T00:33:31;95387.22;;;0.61;66.04
46379;BME280;32084;42.254;22.744;2023-03-14T00:35:58;95390.59;;;0.49;66.52
46379;BME280;32084;42.254;22.744;2023-03-14T00:38:24;95389.63;;;0.64;66.93
46379;BME280;32084;42.254;22.744;2023-03-14T00:40:51;95384.38;;;0.78;66.15
46379;BME280;32084;42.254;22.744;2023-03-14T00:43:18;95385.25;;;0.65;66.04
46379;BME280;32084;42.254;22.744;2023-03-14T00:45:44;95383.25;;;0.25;66.73
46379;BME280;32084;42.254;22.744;2023-03-14T00:48:10;95380.03;;;0.06;67.45
46379;BME280;32084;42.254;22.744;2023-03-14T00:50:36;95377.97;;;0.11;67.64
46379;BME280;32084;42.254;22.744;2023-03-14T00:53:02;95383.81;;;0.30;68.55
46379;BME280;32084;42.254;22.744;2023-03-14T00:55:28;95370.56;;;0.32;67.22
46379;BME280;32084;42.254;22.744;2023-03-14T00:57:54;95369.22;;;-0.04;67.80
46379;BME280;32084;42.254;22.744;2023-03-14T01:00:20;95363.00;;;-0.17;68.77
46379;BME280;32084;42.254;22.744;2023-03-14T01:02:46;95360.41;;;0.11;68.80
46379;BME280;32084;42.254;22.744;2023-03-14T01:05:12;95350.66;;;0.28;68.08
46379;BME280;32084;42.254;22.744;2023-03-14T01:07:38;95354.22;;;0.12;67.72
46379;BME280;32084;42.254;22.744;2023-03-14T01:10:05;95353.06;;;-0.12;68.79
46379;BME280;32084;42.254;22.744;2023-03-14T01:12:31;95350.31;;;-0.25;69.21
46379;BME280;32084;42.254;22.744;2023-03-14T01:14:57;95348.72;;;-0.28;69.36
46379;BME280;32084;42.254;22.744;2023-03-14T01:17:23;95343.09;;;-0.22;69.39
46379;BME280;32084;42.254;22.744;2023-03-14T01:19:49;95337.28;;;-0.12;69.09
46379;BME280;32084;42.254;22.744;2023-03-14T01:22:15;95330.72;;;-0.20;69.22
46379;BME280;32084;42.254;22.744;2023-03-14T01:24:41;95328.53;;;-0.27;69.27
46379;BME280;32084;42.254;22.744;2023-03-14T01:27:07;95330.16;;;-0.25;69.18
46379;BME280;32084;42.254;22.744;2023-03-14T01:29:33;95320.34;;;0.08;68.92
46379;BME280;32084;42.254;22.744;2023-03-14T01:31:59;95328.69;;;0.29;68.86
46379;BME280;32084;42.254;22.744;2023-03-14T01:34:25;95324.44;;;0.41;68.89
46379;BME280;32084;42.254;22.744;2023-03-14T01:36:51;95329.06;;;0.51;67.80
46379;BME280;32084;42.254;22.744;2023-03-14T01:39:17;95328.69;;;0.14;67.72
46379;BME280;32084;42.254;22.744;2023-03-14T01:41:43;95323.50;;;-0.16;68.85
46379;BME280;32084;42.254;22.744;2023-03-14T01:44:10;95319.38;;;-0.06;69.39
46379;BME280;32084;42.254;22.744;2023-03-14T01:46:38;95319.00;;;0.15;69.82
46379;BME280;32084;42.254;22.744;2023-03-14T01:54:53;95301.38;;;-0.42;70.09
46379;BME280;32084;42.254;22.744;2023-03-14T01:57:02;95304.50;;;-0.21;69.53
46379;BME280;32084;42.254;22.744;2023-03-14T01:59:30;95310.72;;;-0.08;70.04
46379;BME280;32084;42.254;22.744;2023-03-14T02:01:58;95314.69;;;-0.15;69.83
46379;BME280;32084;42.254;22.744;2023-03-14T02:04:25;95316.53;;;-0.31;69.33
46379;BME280;32084;42.254;22.744;2023-03-14T02:06:56;95309.84;;;-0.37;69.79
46379;BME280;32084;42.254;22.744;2023-03-14T02:09:24;95310.91;;;-0.25;69.72
46379;BME280;32084;42.254;22.744;2023-03-14T02:11:50;95302.56;;;-0.03;69.84
46379;BME280;32084;42.254;22.744;2023-03-14T02:17:14;95295.34;;;-0.28;69.47
46379;BME280;32084;42.254;22.744;2023-03-14T02:22:26;95300.59;;;-0.14;69.77
46379;BME280;32084;42.254;22.744;2023-03-14T02:27:34;95290.41;;;-0.34;69.33
46379;BME280;32084;42.254;22.744;2023-03-14T02:30:01;95289.13;;;-0.42;70.93
46379;BME280;32084;42.254;22.744;2023-03-14T02:32:29;95298.41;;;-0.36;70.56
46379;BME280;32084;42.254;22.744;2023-03-14T02:34:56;95291.19;;;-0.18;71.02
46379;BME280;32084;42.254;22.744;2023-03-14T02:37:24;95294.66;;;-0.17;70.58
46379;BME280;32084;42.254;22.744;2023-03-14T02:39:51;95293.69;;;-0.45;69.79
46379;BME280;32084;42.254;22.744;2023-03-14T02:42:17;95299.53;;;-0.70;70.92
46379;BME280;32084;42.254;22.744;2023-03-14T02:44:48;95303.25;;;-0.58;70.95
46379;BME280;32084;42.254;22.744;2023-03-14T02:47:15;95304.69;;;-0.38;70.97
46379;BME280;32084;42.254;22.744;2023-03-14T02:49:42;95302.00;;;-0.23;70.00
46379;BME280;32084;42.254;22.744;2023-03-14T02:52:08;95299.00;;;-0.16;70.18
46379;BME280;32084;42.254;22.744;2023-03-14T02:54:34;95300.38;;;-0.25;69.68
46379;BME280;32084;42.254;22.744;2023-03-14T02:57:00;95305.94;;;-0.30;70.02
46379;BME280;32084;42.254;22.744;2023-03-14T02:59:26;95311.31;;;-0.17;69.86
46379;BME280;32084;42.254;22.744;2023-03-14T03:01:52;95306.63;;;-0.42;69.93
46379;BME280;32084;42.254;22.744;2023-03-14T03:04:18;95310.00;;;-0.40;70.31
46379;BME280;32084;42.254;22.744;2023-03-14T03:06:44;95310.59;;;-0.35;69.82
46379;BME280;32084;42.254;22.744;2023-03-14T03:09:10;95299.72;;;-0.29;70.47
46379;BME280;32084;42.254;22.744;2023-03-14T03:11:36;95318.47;;;-0.35;69.75
46379;BME280;32084;42.254;22.744;2023-03-14T03:14:02;95310.91;;;-0.70;70.38
46379;BME280;32084;42.254;22.744;2023-03-14T03:16:28;95306.03;;;-0.92;71.58
46379;BME280;32084;42.254;22.744;2023-03-14T03:18:54;95309.81;;;-1.12;72.22
46379;BME280;32084;42.254;22.744;2023-03-14T03:21:20;95304.81;;;-1.32;73.11
46379;BME280;32084;42.254;22.744;2023-03-14T03:23:49;95313.25;;;-1.27;73.34
46379;BME280;32084;42.254;22.744;2023-03-14T03:26:16;95313.25;;;-1.11;72.81
46379;BME280;32084;42.254;22.744;2023-03-14T03:28:42;95308.13;;;-0.83;72.05
46379;BME280;32084;42.254;22.744;2023-03-14T03:31:08;95305.00;;;-0.59;71.87
46379;BME280;32084;42.254;22.744;2023-03-14T03:33:35;95302.94;;;-0.68;70.66
46379;BME280;32084;42.254;22.744;2023-03-14T03:36:01;95312.06;;;-1.06;72.13
46379;BME280;32084;42.254;22.744;2023-03-14T03:38:27;95305.34;;;-0.95;72.52
46379;BME280;32084;42.254;22.744;2023-03-14T03:40:53;95313.59;;;-1.02;72.33
46379;BME280;32084;42.254;22.744;2023-03-14T03:43:19;95321.94;;;-0.95;71.66
46379;BME280;32084;42.254;22.744;2023-03-14T03:45:45;95318.28;;;-0.76;72.13
46379;BME280;32084;42.254;22.744;2023-03-14T03:48:11;95325.06;;;-0.88;71.54
46379;BME280;32084;42.254;22.744;2023-03-14T03:50:43;95325.03;;;-1.34;72.64
46379;BME280;32084;42.254;22.744;2023-03-14T03:53:09;95325.88;;;-1.34;73.48
46379;BME280;32084;42.254;22.744;2023-03-14T03:55:35;95325.53;;;-1.12;72.79
46379;BME280;32084;42.254;22.744;2023-03-14T03:58:01;95298.09;;;-1.06;73.01
46379;BME280;32084;42.254;22.744;2023-03-14T04:00:27;95321.84;;;-0.93;71.83
46379;BME280;32084;42.254;22.744;2023-03-14T04:02:53;95319.63;;;-1.15;72.25
46379;BME280;32084;42.254;22.744;2023-03-14T04:05:19;95316.72;;;-1.43;73.21
46379;BME280;32084;42.254;22.744;2023-03-14T04:07:45;95309.63;;;-1.57;73.70
46379;BME280;32084;42.254;22.744;2023-03-14T04:10:12;95319.53;;;-1.30;74.15
46379;BME280;32084;42.254;22.744;2023-03-14T04:12:38;95315.88;;;-1.27;73.17
46379;BME280;32084;42.254;22.744;2023-03-14T04:15:04;95304.91;;;-1.34;73.14
46379;BME280;32084;42.254;22.744;2023-03-14T04:17:30;95302.09;;;-1.15;73.58
46379;BME280;32084;42.254;22.744;2023-03-14T04:19:56;95298.78;;;-1.19;72.61
46379;BME280;32084;42.254;22.744;2023-03-14T04:22:22;95291.50;;;-1.29;73.10
46379;BME280;32084;42.254;22.744;2023-03-14T04:24:48;95287.44;;;-1.19;72.89
46379;BME280;32084;42.254;22.744;2023-03-14T04:27:14;95292.06;;;-0.92;72.48
46379;BME280;32084;42.254;22.744;2023-03-14T04:29:41;95298.00;;;-0.74;72.13
46379;BME280;32084;42.254;22.744;2023-03-14T04:32:07;95280.13;;;-0.68;71.51
46379;BME280;32084;42.254;22.744;2023-03-14T04:34:33;95285.69;;;-0.88;72.53
46379;BME280;32084;42.254;22.744;2023-03-14T04:36:59;95277.63;;;-1.15;72.29
46379;BME280;32084;42.254;22.744;2023-03-14T04:39:25;95280.81;;;-1.10;73.27
46379;BME280;32084;42.254;22.744;2023-03-14T04:41:51;95282.69;;;-1.12;72.57
46379;BME280;32084;42.254;22.744;2023-03-14T04:44:18;95279.91;;;-1.25;72.83
46379;BME280;32084;42.254;22.744;2023-03-14T04:46:44;95279.81;;;-1.24;72.99
46379;BME280;32084;42.254;22.744;2023-03-14T04:49:10;95278.38;;;-1.29;72.80
46379;BME280;32084;42.254;22.744;2023-03-14T04:51:36;95283.31;;;-1.39;73.17
46379;BME280;32084;42.254;22.744;2023-03-14T04:54:02;95281.88;;;-1.29;73.72
46379;BME280;32084;42.254;22.744;2023-03-14T04:56:28;95287.41;;;-1.03;73.48
46379;BME280;32084;42.254;22.744;2023-03-14T04:58:54;95279.19;;;-0.97;72.93
46379;BME280;32084;42.254;22.744;2023-03-14T05:01:20;95285.31;;;-0.96;72.77
46379;BME280;32084;42.254;22.744;2023-03-14T05:03:46;95274.06;;;-0.99;72.33
46379;BME280;32084;42.254;22.744;2023-03-14T05:06:12;95276.94;;;-0.73;72.64
46379;BME280;32084;42.254;22.744;2023-03-14T05:08:38;95282.22;;;-0.58;71.97
46379;BME280;32084;42.254;22.744;2023-03-14T05:11:04;95272.94;;;-0.50;71.78
46379;BME280;32084;42.254;22.744;2023-03-14T05:13:31;95270.72;;;-0.42;71.04
46379;BME280;32084;42.254;22.744;2023-03-14T05:16:04;95271.19;;;-0.35;70.71
46379;BME280;32084;42.254;22.744;2023-03-14T05:28:59;95268.94;;;0.31;69.40
46379;BME280;32084;42.254;22.744;2023-03-14T05:31:26;95269.53;;;0.63;69.18
46379;BME280;32084;42.254;22.744;2023-03-14T05:33:52;95266.97;;;0.76;68.66
46379;BME280;32084;42.254;22.744;2023-03-14T05:36:18;95264.75;;;0.97;67.61
46379;BME280;32084;42.254;22.744;2023-03-14T05:38:44;95271.31;;;1.17;66.88
46379;BME280;32084;42.254;22.744;2023-03-14T05:41:10;95272.41;;;1.40;66.41
46379;BME280;32084;42.254;22.744;2023-03-14T05:43:36;95278.38;;;1.69;66.35
46379;BME280;32084;42.254;22.744;2023-03-14T05:46:02;95272.72;;;2.01;65.32
46379;BME280;32084;42.254;22.744;2023-03-14T05:48:28;95270.66;;;2.30;64.74
46379;BME280;32084;42.254;22.744;2023-03-14T05:50:55;95265.41;;;2.67;63.21
46379;BME280;32084;42.254;22.744;2023-03-14T05:53:21;95263.88;;;3.13;61.92
46379;BME280;32084;42.254;22.744;2023-03-14T05:55:47;95259.19;;;3.52;60.73
46379;BME280;32084;42.254;22.744;2023-03-14T05:58:16;95266.69;;;4.27;59.10
46379;BME280;32084;42.254;22.744;2023-03-14T06:00:42;95280.75;;;5.81;53.88
46379;BME280;32084;42.254;22.744;2023-03-14T06:03:08;95296.50;;;8.44;47.01
46379;BME280;32084;42.254;22.744;2023-03-14T06:05:34;95303.41;;;10.82;42.13
46379;BME280;32084;42.254;22.744;2023-03-14T06:08:00;95315.72;;;12.43;39.19
46379;BME280;32084;42.254;22.744;2023-03-14T06:10:26;95328.78;;;13.35;36.43
46379;BME280;32084;42.254;22.744;2023-03-14T06:12:52;95328.63;;;13.99;35.55
46379;BME280;32084;42.254;22.744;2023-03-14T06:15:18;95328.41;;;14.55;33.56
46379;BME280;32084;42.254;22.744;2023-03-14T06:17:44;95334.53;;;14.87;33.44
46379;BME280;32084;42.254;22.744;2023-03-14T06:20:11;95326.19;;;14.13;33.71
46379;BME280;32084;42.254;22.744;2023-03-14T06:22:37;95315.72;;;12.52;35.12
46379;BME280;32084;42.254;22.744;2023-03-14T06:25:05;95297.56;;;10.52;39.05
46379;BME280;32084;42.254;22.744;2023-03-14T06:27:31;95277.97;;;8.90;42.62
46379;BME280;32084;42.254;22.744;2023-03-14T06:29:57;95272.25;;;8.47;43.46
46379;BME280;32084;42.254;22.744;2023-03-14T06:32:23;95259.44;;;7.84;44.29
46379;BME280;32084;42.254;22.744;2023-03-14T06:34:49;95252.88;;;7.69;46.45
46379;BME280;32084;42.254;22.744;2023-03-14T06:37:15;95251.19;;;7.68;46.69
46379;BME280;32084;42.254;22.744;2023-03-14T06:39:41;95250.63;;;7.93;46.55
46379;BME280;32084;42.254;22.744;2023-03-14T06:42:09;95253.69;;;7.79;46.68
46379;BME280;32084;42.254;22.744;2023-03-14T06:44:35;95251.56;;;8.02;46.47
46379;BME280;32084;42.254;22.744;2023-03-14T06:47:01;95250.59;;;8.03;47.47
46379;BME280;32084;42.254;22.744;2023-03-14T06:49:28;95235.53;;;7.65;47.77
46379;BME280;32084;42.254;22.744;2023-03-14T06:51:54;95227.81;;;7.42;48.44
46379;BME280;32084;42.254;22.744;2023-03-14T06:54:20;95227.88;;;6.92;49.16
46379;BME280;32084;42.254;22.744;2023-03-14T06:56:46;95229.31;;;7.06;49.12
46379;BME280;32084;42.254;22.744;2023-03-14T06:59:12;95232.44;;;7.50;48.63
46379;BME280;32084;42.254;22.744;2023-03-14T07:01:38;95233.63;;;8.04;47.59
46379;BME280;32084;42.254;22.744;2023-03-14T07:04:04;95240.63;;;8.05;48.15
46379;BME280;32084;42.254;22.744;2023-03-14T07:06:30;95231.03;;;8.42;47.08
46379;BME280;32084;42.254;22.744;2023-03-14T07:08:56;95227.69;;;8.95;46.11
46379;BME280;32084;42.254;22.744;2023-03-14T07:11:22;95232.78;;;9.34;45.80
46379;BME280;32084;42.254;22.744;2023-03-14T07:13:48;95228.66;;;9.57;44.86
46379;BME280;32084;42.254;22.744;2023-03-14T07:16:14;95228.72;;;9.84;44.86
46379;BME280;32084;42.254;22.744;2023-03-14T07:18:40;95231.25;;;9.67;44.78
46379;BME280;32084;42.254;22.744;2023-03-14T07:21:07;95228.56;;;9.67;45.18
46379;BME280;32084;42.254;22.744;2023-03-14T07:23:34;95229.66;;;9.74;44.72
46379;BME280;32084;42.254;22.744;2023-03-14T07:26:01;95226.13;;;10.18;44.03
46379;BME280;32084;42.254;22.744;2023-03-14T07:28:27;95227.72;;;10.29;43.94
46379;BME280;32084;42.254;22.744;2023-03-14T07:30:53;95221.81;;;10.43;43.59
46379;BME280;32084;42.254;22.744;2023-03-14T07:33:20;95224.31;;;10.45;42.90
46379;BME280;32084;42.254;22.744;2023-03-14T07:35:46;95208.78;;;10.22;44.11
46379;BME280;32084;42.254;22.744;2023-03-14T07:38:12;95212.25;;;10.67;43.22
46379;BME280;32084;42.254;22.744;2023-03-14T07:40:38;95207.06;;;10.65;42.23
46379;BME280;32084;42.254;22.744;2023-03-14T07:43:05;95205.03;;;11.02;44.18
46379;BME280;32084;42.254;22.744;2023-03-14T07:45:31;95211.47;;;11.33;41.64
46379;BME280;32084;42.254;22.744;2023-03-14T07:47:57;95215.34;;;11.72;41.60
46379;BME280;32084;42.254;22.744;2023-03-14T07:50:26;95207.19;;;11.90;41.33
46379;BME280;32084;42.254;22.744;2023-03-14T07:52:53;95201.94;;;11.31;40.59
46379;BME280;32084;42.254;22.744;2023-03-14T07:55:19;95200.25;;;11.38;43.02
46379;BME280;32084;42.254;22.744;2023-03-14T07:57:45;95198.97;;;11.67;40.95
46379;BME280;32084;42.254;22.744;2023-03-14T08:00:11;95199.28;;;11.88;40.47
46379;BME280;32084;42.254;22.744;2023-03-14T08:02:39;95203.31;;;11.76;40.00
46379;BME280;32084;42.254;22.744;2023-03-14T08:05:05;95191.06;;;11.82;41.72
46379;BME280;32084;42.254;22.744;2023-03-14T08:07:31;95184.56;;;12.17;41.10
46379;BME280;32084;42.254;22.744;2023-03-14T08:09:57;95194.56;;;12.40;40.31
46379;BME280;32084;42.254;22.744;2023-03-14T08:12:23;95191.16;;;12.62;39.33
46379;BME280;32084;42.254;22.744;2023-03-14T08:14:49;95192.28;;;12.76;38.40
46379;BME280;32084;42.254;22.744;2023-03-14T08:17:15;95192.25;;;13.16;39.07
46379;BME280;32084;42.254;22.744;2023-03-14T08:19:42;95194.06;;;12.92;38.38
46379;BME280;32084;42.254;22.744;2023-03-14T08:22:08;95183.16;;;13.25;38.02
46379;BME280;32084;42.254;22.744;2023-03-14T08:24:34;95186.19;;;13.22;36.79
46379;BME280;32084;42.254;22.744;2023-03-14T08:27:00;95190.84;;;13.36;36.73
46379;BME280;32084;42.254;22.744;2023-03-14T08:29:26;95184.16;;;13.24;36.04
46379;BME280;32084;42.254;22.744;2023-03-14T08:31:52;95187.44;;;13.42;35.28
46379;BME280;32084;42.254;22.744;2023-03-14T08:34:19;95178.63;;;13.57;36.44
46379;BME280;32084;42.254;22.744;2023-03-14T08:36:45;95186.84;;;13.78;36.63
46379;BME280;32084;42.254;22.744;2023-03-14T08:39:12;95178.91;;;13.85;35.49
46379;BME280;32084;42.254;22.744;2023-03-14T08:41:38;95172.13;;;14.12;36.64
46379;BME280;32084;42.254;22.744;2023-03-14T08:44:07;95176.69;;;13.89;36.16
46379;BME280;32084;42.254;22.744;2023-03-14T08:46:33;95173.25;;;14.18;36.16
46379;BME280;32084;42.254;22.744;2023-03-14T08:48:59;95173.72;;;14.21;34.25
46379;BME280;32084;42.254;22.744;2023-03-14T08:51:25;95172.84;;;14.59;34.36
46379;BME280;32084;42.254;22.744;2023-03-14T08:53:51;95171.47;;;14.63;35.37
46379;BME280;32084;42.254;22.744;2023-03-14T08:56:17;95151.75;;;14.33;35.84
46379;BME280;32084;42.254;22.744;2023-03-14T08:58:43;95156.22;;;14.85;35.47
46379;BME280;32084;42.254;22.744;2023-03-14T09:01:09;95150.41;;;15.18;34.02
46379;BME280;32084;42.254;22.744;2023-03-14T09:03:36;95146.34;;;15.07;32.90
46379;BME280;32084;42.254;22.744;2023-03-14T09:06:08;95145.41;;;15.36;32.56
46379;BME280;32084;42.254;22.744;2023-03-14T09:08:35;95143.91;;;15.27;32.11
46379;BME280;32084;42.254;22.744;2023-03-14T09:11:01;95142.19;;;15.05;31.87
46379;BME280;32084;42.254;22.744;2023-03-14T09:13:27;95141.16;;;15.06;30.78
46379;BME280;32084;42.254;22.744;2023-03-14T09:15:54;95131.75;;;15.16;31.25
46379;BME280;32084;42.254;22.744;2023-03-14T09:18:20;95119.72;;;15.55;31.04
46379;BME280;32084;42.254;22.744;2023-03-14T09:20:47;95115.47;;;15.25;31.21
46379;BME280;32084;42.254;22.744;2023-03-14T09:23:13;95104.72;;;15.10;30.21
46379;BME280;32084;42.254;22.744;2023-03-14T09:25:39;95111.06;;;15.02;31.30
46379;BME280;32084;42.254;22.744;2023-03-14T09:28:05;95105.31;;;15.27;30.72
46379;BME280;32084;42.254;22.744;2023-03-14T09:30:31;95097.00;;;15.21;33.03
46379;BME280;32084;42.254;22.744;2023-03-14T09:32:57;95092.38;;;14.79;32.13
46379;BME280;32084;42.254;22.744;2023-03-14T09:35:24;95086.50;;;15.48;32.91
46379;BME280;32084;42.254;22.744;2023-03-14T09:37:51;95085.00;;;15.89;32.53
46379;BME280;32084;42.254;22.744;2023-03-14T09:40:17;95079.50;;;15.54;32.67
46379;BME280;32084;42.254;22.744;2023-03-14T09:42:43;95078.34;;;15.41;31.39
46379;BME280;32084;42.254;22.744;2023-03-14T09:45:15;95064.41;;;15.38;32.49
46379;BME280;32084;42.254;22.744;2023-03-14T09:47:43;95052.25;;;14.99;33.02
46379;BME280;32084;42.254;22.744;2023-03-14T09:50:13;95048.69;;;14.98;32.01
46379;BME280;32084;42.254;22.744;2023-03-14T09:52:40;95050.31;;;15.14;33.04
46379;BME280;32084;42.254;22.744;2023-03-14T09:57:37;95032.78;;;14.82;33.31
46379;BME280;32084;42.254;22.744;2023-03-14T10:00:06;95038.97;;;14.61;32.64
46379;BME280;32084;42.254;22.744;2023-03-14T10:02:40;95028.16;;;14.76;34.52
46379;BME280;32084;42.254;22.744;2023-03-14T10:05:14;95024.69;;;14.97;35.19
46379;BME280;32084;42.254;22.744;2023-03-14T10:07:41;95019.28;;;14.97;35.02
46379;BME280;32084;42.254;22.744;2023-03-14T10:10:13;95008.91;;;14.94;34.48
46379;BME280;32084;42.254;22.744;2023-03-14T10:12:44;95001.81;;;14.93;33.88
46379;BME280;32084;42.254;22.744;2023-03-14T10:15:11;95004.97;;;14.96;33.51
46379;BME280;32084;42.254;22.744;2023-03-14T10:17:39;94996.53;;;14.99;34.21
46379;BME280;32084;42.254;22.744;2023-03-14T10:20:05;94988.59;;;14.91;32.54
46379;BME280;32084;42.254;22.744;2023-03-14T10:22:31;94974.44;;;15.32;33.50
46379;BME280;32084;42.254;22.744;2023-03-14T10:25:02;94966.47;;;15.74;33.04
46379;BME280;32084;42.254;22.744;2023-03-14T10:27:33;94966.09;;;15.77;32.54
46379;BME280;32084;42.254;22.744;2023-03-14T10:30:00;94958.41;;;16.15;33.39
46379;BME280;32084;42.254;22.744;2023-03-14T10:32:34;94957.56;;;16.56;33.95
46379;BME280;32084;42.254;22.744;2023-03-14T10:37:50;94955.38;;;16.87;30.58
46379;BME280;32084;42.254;22.744;2023-03-14T10:40:16;94955.28;;;16.60;30.32
46379;BME280;32084;42.254;22.744;2023-03-14T10:42:43;94946.84;;;16.83;30.49
46379;BME280;32084;42.254;22.744;2023-03-14T10:47:48;94930.03;;;16.94;32.43
46379;BME280;32084;42.254;22.744;2023-03-14T10:50:28;94912.19;;;17.20;32.28
46379;BME280;32084;42.254;22.744;2023-03-14T10:52:54;94906.38;;;17.23;32.42
46379;BME280;32084;42.254;22.744;2023-03-14T10:55:23;94904.28;;;17.25;32.69
46379;BME280;32084;42.254;22.744;2023-03-14T10:57:49;94897.81;;;17.26;31.70
46379;BME280;32084;42.254;22.744;2023-03-14T11:00:16;94890.13;;;17.43;31.36
46379;BME280;32084;42.254;22.744;2023-03-14T11:05:31;94873.41;;;17.93;31.72
46379;BME280;32084;42.254;22.744;2023-03-14T11:08:01;94868.03;;;17.80;30.07
46379;BME280;32084;42.254;22.744;2023-03-14T11:10:35;94856.63;;;17.51;32.41
46379;BME280;32084;42.254;22.744;2023-03-14T11:23:17;94816.03;;;17.78;32.82
46379;BME280;32084;42.254;22.744;2023-03-14T11:28:37;94789.00;;;17.78;31.66
46379;BME280;32084;42.254;22.744;2023-03-14T11:31:08;94791.69;;;17.84;31.79
46379;BME280;32084;42.254;22.744;2023-03-14T11:33:39;94784.31;;;17.98;32.34
46379;BME280;32084;42.254;22.744;2023-03-14T11:36:14;94775.91;;;18.20;32.09
46379;BME280;32084;42.254;22.744;2023-03-14T11:38:55;94766.66;;;18.02;32.53
46379;BME280;32084;42.254;22.744;2023-03-14T11:41:26;94773.59;;;17.71;32.86
46379;BME280;32084;42.254;22.744;2023-03-14T11:43:55;94761.16;;;17.70;32.33
46379;BME280;32084;42.254;22.744;2023-03-14T11:46:23;94764.38;;;17.92;31.57
46379;BME280;32084;42.254;22.744;2023-03-14T11:51:31;94747.22;;;18.12;32.80
46379;BME280;32084;42.254;22.744;2023-03-14T11:56:36;94733.94;;;18.04;30.81
46379;BME280;32084;42.254;22.744;2023-03-14T11:59:09;94736.97;;;17.75;30.21
46379;BME280;32084;42.254;22.744;2023-03-14T12:02:21;94726.63;;;17.66;31.40
46379;BME280;32084;42.254;22.744;2023-03-14T12:06:56;94708.25;;;17.88;31.94
46379;BME280;32084;42.254;22.744;2023-03-14T12:09:23;94703.59;;;18.02;32.10
46379;BME280;32084;42.254;22.744;2023-03-14T12:14:26;94690.94;;;18.27;32.14
46379;BME280;32084;42.254;22.744;2023-03-14T12:16:54;94688.00;;;18.29;31.49
46379;BME280;32084;42.254;22.744;2023-03-14T12:21:53;94672.88;;;17.89;33.02
46379;BME280;32084;42.254;22.744;2023-03-14T12:24:39;94667.69;;;17.88;33.18
46379;BME280;32084;42.254;22.744;2023-03-14T12:27:09;94658.75;;;17.87;32.98
46379;BME280;32084;42.254;22.744;2023-03-14T12:29:56;94658.09;;;17.92;32.29
46379;BME280;32084;42.254;22.744;2023-03-14T12:32:24;94644.94;;;18.02;33.01
46379;BME280;32084;42.254;22.744;2023-03-14T12:34:50;94651.88;;;18.17;31.91
46379;BME280;32084;42.254;22.744;2023-03-14T12:50:13;94614.25;;;17.83;30.50
46379;BME280;32084;42.254;22.744;2023-03-14T12:52:44;94611.28;;;17.91;31.43
46379;BME280;32084;42.254;22.744;2023-03-14T12:55:17;94605.41;;;18.01;30.68
46379;BME280;32084;42.254;22.744;2023-03-14T13:00:35;94606.13;;;17.51;30.18
46379;BME280;32084;42.254;22.744;2023-03-14T13:05:52;94580.53;;;18.11;31.92
46379;BME280;32084;42.254;22.744;2023-03-14T13:08:36;94581.91;;;18.20;30.95
46379;BME280;32084;42.254;22.744;2023-03-14T13:11:04;94576.91;;;18.24;30.22
46379;BME280;32084;42.254;22.744;2023-03-14T13:13:31;94567.41;;;18.14;31.13
46379;BME280;32084;42.254;22.744;2023-03-14T13:16:00;94567.44;;;17.83;30.54
46379;BME280;32084;42.254;22.744;2023-03-14T13:21:20;94547.56;;;17.70;31.84
46379;BME280;32084;42.254;22.744;2023-03-14T13:23:54;94542.81;;;17.66;31.10
46379;BME280;32084;42.254;22.744;2023-03-14T13:26:20;94533.28;;;17.63;31.43
46379;BME280;32084;42.254;22.744;2023-03-14T13:28:47;94526.16;;;17.69;31.98
46379;BME280;32084;42.254;22.744;2023-03-14T13:31:23;94517.25;;;17.68;31.84
46379;BME280;32084;42.254;22.744;2023-03-14T13:33:57;94525.34;;;17.68;32.02
46379;BME280;32084;42.254;22.744;2023-03-14T13:36:23;94513.03;;;17.72;32.34
46379;BME280;32084;42.254;22.744;2023-03-14T13:38:55;94513.94;;;17.91;31.41
46379;BME280;32084;42.254;22.744;2023-03-14T13:41:22;94504.38;;;17.89;32.27
46379;BME280;32084;42.254;22.744;2023-03-14T13:43:49;94498.75;;;17.90;32.30
46379;BME280;32084;42.254;22.744;2023-03-14T13:48:45;94499.47;;;18.04;31.41
46379;BME280;32084;42.254;22.744;2023-03-14T13:51:13;94490.50;;;18.04;31.95
46379;BME280;32084;42.254;22.744;2023-03-14T13:53:57;94480.59;;;17.98;31.47
46379;BME280;32084;42.254;22.744;2023-03-14T13:56:27;94477.81;;;17.86;30.42
46379;BME280;32084;42.254;22.744;2023-03-14T13:58:54;94473.69;;;17.76;31.12
46379;BME280;32084;42.254;22.744;2023-03-14T14:01:24;94466.63;;;17.75;31.32
46379;BME280;32084;42.254;22.744;2023-03-14T14:03:51;94462.88;;;17.76;30.88
46379;BME280;32084;42.254;22.744;2023-03-14T14:08:54;94452.44;;;17.80;29.80
46379;BME280;32084;42.254;22.744;2023-03-14T14:11:29;94454.06;;;17.88;30.33
46379;BME280;32084;42.254;22.744;2023-03-14T14:13:57;94455.22;;;17.99;28.52
46379;BME280;32084;42.254;22.744;2023-03-14T14:16:24;94449.72;;;18.05;29.05
46379;BME280;32084;42.254;22.744;2023-03-14T14:18:51;94447.94;;;18.18;29.24
46379;BME280;32084;42.254;22.744;2023-03-14T14:21:18;94435.81;;;18.20;29.44